sensor_id;sensor_type;location;lat;lon;timestamp;pressure;altitude;pressure_sealevel;temperature;humidity
44839;BME280;30576;42.098;24.876;2023-01-30T00:00:00;100145.28;;;4.36;63.20
44839;BME280;30576;42.098;24.876;2023-01-30T00:02:26;100146.78;;;4.22;63.80
44839;BME280;30576;42.098;24.876;2023-01-30T00:04:51;100148.38;;;4.15;63.74
44839;BME280;30576;42.098;24.876;2023-01-30T00:07:16;100144.59;;;3.98;64.17
44839;BME280;30576;42.098;24.876;2023-01-30T00:09:42;100149.41;;;4.23;63.58
44839;BME280;30576;42.098;24.876;2023-01-30T00:12:07;100150.44;;;4.32;63.50
44839;BME280;30576;42.098;24.876;2023-01-30T00:14:32;100146.94;;;4.31;62.81
44839;BME280;30576;42.098;24.876;2023-01-30T00:16:58;100143.63;;;4.41;63.37
44839;BME280;30576;42.098;24.876;2023-01-30T00:19:23;100139.72;;;4.18;63.54
44839;BME280;30576;42.098;24.876;2023-01-30T00:21:48;100143.34;;;4.26;63.15
44839;BME280;30576;42.098;24.876;2023-01-30T00:24:14;100150.81;;;4.06;63.63
44839;BME280;30576;42.098;24.876;2023-01-30T00:26:39;100141.22;;;4.03;63.77
44839;BME280;30576;42.098;24.876;2023-01-30T00:29:05;100137.38;;;3.86;64.10
44839;BME280;30576;42.098;24.876;2023-01-30T00:31:30;100141.16;;;4.00;63.93
44839;BME280;30576;42.098;24.876;2023-01-30T00:33:55;100144.47;;;3.91;64.40
44839;BME280;30576;42.098;24.876;2023-01-30T00:36:21;100143.06;;;4.10;63.83
44839;BME280;30576;42.098;24.876;2023-01-30T00:38:46;100141.34;;;4.09;63.42
44839;BME280;30576;42.098;24.876;2023-01-30T00:41:11;100147.47;;;4.13;64.00
44839;BME280;30576;42.098;24.876;2023-01-30T00:43:39;100143.38;;;4.27;63.12
44839;BME280;30576;42.098;24.876;2023-01-30T00:46:28;100143.28;;;4.23;63.58
44839;BME280;30576;42.098;24.876;2023-01-30T00:49:14;100136.91;;;4.07;63.66
44839;BME280;30576;42.098;24.876;2023-01-30T00:51:39;100134.41;;;4.11;62.89
44839;BME280;30576;42.098;24.876;2023-01-30T00:54:05;100136.34;;;4.22;63.20
44839;BME280;30576;42.098;24.876;2023-01-30T00:56:31;100137.16;;;4.21;63.31
44839;BME280;30576;42.098;24.876;2023-01-30T00:58:56;100139.78;;;4.21;62.76
44839;BME280;30576;42.098;24.876;2023-01-30T01:01:21;100136.03;;;4.05;63.18
44839;BME280;30576;42.098;24.876;2023-01-30T01:03:47;100136.75;;;3.98;63.12
44839;BME280;30576;42.098;24.876;2023-01-30T01:06:12;100138.47;;;3.96;63.70
44839;BME280;30576;42.098;24.876;2023-01-30T01:08:37;100139.72;;;4.18;63.51
44839;BME280;30576;42.098;24.876;2023-01-30T01:11:03;100138.22;;;4.32;63.20
44839;BME280;30576;42.098;24.876;2023-01-30T01:13:28;100123.63;;;3.93;64.49
44839;BME280;30576;42.098;24.876;2023-01-30T01:15:54;100124.44;;;3.92;64.78
44839;BME280;30576;42.098;24.876;2023-01-30T01:18:19;100120.31;;;4.02;64.74
44839;BME280;30576;42.098;24.876;2023-01-30T01:20:44;100121.53;;;3.75;64.37
44839;BME280;30576;42.098;24.876;2023-01-30T01:23:10;100116.22;;;3.70;65.72
44839;BME280;30576;42.098;24.876;2023-01-30T01:25:35;100113.63;;;3.72;64.75
44839;BME280;30576;42.098;24.876;2023-01-30T01:28:00;100112.00;;;3.77;63.90
44839;BME280;30576;42.098;24.876;2023-01-30T01:30:26;100117.97;;;3.71;63.75
44839;BME280;30576;42.098;24.876;2023-01-30T01:32:51;100110.81;;;3.61;64.14
44839;BME280;30576;42.098;24.876;2023-01-30T01:35:16;100112.66;;;3.65;64.62
44839;BME280;30576;42.098;24.876;2023-01-30T01:37:43;100110.09;;;3.68;64.64
44839;BME280;30576;42.098;24.876;2023-01-30T01:40:10;100114.38;;;3.65;64.09
44839;BME280;30576;42.098;24.876;2023-01-30T01:42:58;100110.66;;;3.53;65.02
44839;BME280;30576;42.098;24.876;2023-01-30T01:45:23;100109.16;;;3.65;65.19
44839;BME280;30576;42.098;24.876;2023-01-30T01:48:01;100112.09;;;3.82;64.92
44839;BME280;30576;42.098;24.876;2023-01-30T01:50:39;100121.44;;;3.70;64.33
44839;BME280;30576;42.098;24.876;2023-01-30T01:53:06;100119.75;;;3.72;64.79
44839;BME280;30576;42.098;24.876;2023-01-30T01:55:32;100124.53;;;3.97;64.26
44839;BME280;30576;42.098;24.876;2023-01-30T01:58:03;100116.47;;;3.84;64.12
44839;BME280;30576;42.098;24.876;2023-01-30T02:00:29;100115.56;;;3.82;64.22
44839;BME280;30576;42.098;24.876;2023-01-30T02:02:56;100112.81;;;3.74;64.24
44839;BME280;30576;42.098;24.876;2023-01-30T02:05:22;100106.84;;;3.80;64.64
44839;BME280;30576;42.098;24.876;2023-01-30T02:07:56;100104.78;;;4.09;63.76
44839;BME280;30576;42.098;24.876;2023-01-30T02:10:39;100104.53;;;3.96;63.13
44839;BME280;30576;42.098;24.876;2023-01-30T02:13:07;100102.19;;;4.11;63.42
44839;BME280;30576;42.098;24.876;2023-01-30T02:15:32;100105.53;;;4.04;63.70
44839;BME280;30576;42.098;24.876;2023-01-30T02:17:58;100103.47;;;3.86;63.24
44839;BME280;30576;42.098;24.876;2023-01-30T02:20:35;100096.63;;;3.91;63.03
44839;BME280;30576;42.098;24.876;2023-01-30T02:33:22;100089.06;;;3.61;62.32
44839;BME280;30576;42.098;24.876;2023-01-30T02:46:18;100086.13;;;3.88;61.96
44839;BME280;30576;42.098;24.876;2023-01-30T02:48:56;100077.41;;;3.89;61.27
44839;BME280;30576;42.098;24.876;2023-01-30T02:51:29;100081.13;;;3.54;62.63
44839;BME280;30576;42.098;24.876;2023-01-30T02:53:56;100083.81;;;3.59;62.86
44839;BME280;30576;42.098;24.876;2023-01-30T02:56:22;100091.84;;;3.70;62.09
44839;BME280;30576;42.098;24.876;2023-01-30T02:58:48;100090.06;;;3.67;62.38
44839;BME280;30576;42.098;24.876;2023-01-30T03:06:31;100087.91;;;3.45;62.43
44839;BME280;30576;42.098;24.876;2023-01-30T03:11:59;100084.63;;;3.56;62.98
44839;BME280;30576;42.098;24.876;2023-01-30T03:14:24;100082.63;;;3.42;63.03
44839;BME280;30576;42.098;24.876;2023-01-30T03:16:50;100082.59;;;3.40;63.15
44839;BME280;30576;42.098;24.876;2023-01-30T03:19:18;100083.00;;;3.60;62.72
44839;BME280;30576;42.098;24.876;2023-01-30T03:21:44;100081.97;;;3.53;62.76
44839;BME280;30576;42.098;24.876;2023-01-30T03:24:10;100081.38;;;3.68;62.73
44839;BME280;30576;42.098;24.876;2023-01-30T03:26:36;100076.94;;;3.63;62.58
44839;BME280;30576;42.098;24.876;2023-01-30T03:29:04;100072.91;;;3.79;61.73
44839;BME280;30576;42.098;24.876;2023-01-30T03:31:29;100068.53;;;3.78;61.76
44839;BME280;30576;42.098;24.876;2023-01-30T03:33:55;100070.75;;;3.57;62.34
44839;BME280;30576;42.098;24.876;2023-01-30T03:36:20;100068.22;;;3.62;62.10
44839;BME280;30576;42.098;24.876;2023-01-30T03:38:45;100069.13;;;3.64;62.48
44839;BME280;30576;42.098;24.876;2023-01-30T03:41:11;100068.41;;;3.71;62.03
44839;BME280;30576;42.098;24.876;2023-01-30T03:43:38;100068.16;;;3.59;61.96
44839;BME280;30576;42.098;24.876;2023-01-30T03:46:03;100069.41;;;3.80;61.98
44839;BME280;30576;42.098;24.876;2023-01-30T03:48:28;100069.25;;;3.70;61.58
44839;BME280;30576;42.098;24.876;2023-01-30T03:50:54;100073.69;;;3.74;61.50
44839;BME280;30576;42.098;24.876;2023-01-30T03:53:19;100077.25;;;3.80;61.85
44839;BME280;30576;42.098;24.876;2023-01-30T03:55:44;100073.75;;;3.78;61.18
44839;BME280;30576;42.098;24.876;2023-01-30T03:58:10;100073.44;;;3.62;61.57
44839;BME280;30576;42.098;24.876;2023-01-30T04:00:35;100072.44;;;3.54;62.41
44839;BME280;30576;42.098;24.876;2023-01-30T04:03:01;100066.69;;;3.73;61.81
44839;BME280;30576;42.098;24.876;2023-01-30T04:05:26;100067.41;;;3.65;62.02
44839;BME280;30576;42.098;24.876;2023-01-30T04:07:53;100070.63;;;3.51;61.98
44839;BME280;30576;42.098;24.876;2023-01-30T04:10:20;100064.56;;;3.52;61.48
44839;BME280;30576;42.098;24.876;2023-01-30T04:12:45;100067.97;;;3.48;61.66
44839;BME280;30576;42.098;24.876;2023-01-30T04:15:10;100067.31;;;3.58;61.73
44839;BME280;30576;42.098;24.876;2023-01-30T04:17:36;100061.56;;;3.78;61.35
44839;BME280;30576;42.098;24.876;2023-01-30T04:20:02;100063.03;;;3.64;61.38
44839;BME280;30576;42.098;24.876;2023-01-30T04:22:27;100064.34;;;3.40;61.80
44839;BME280;30576;42.098;24.876;2023-01-30T04:24:52;100065.38;;;3.50;61.59
44839;BME280;30576;42.098;24.876;2023-01-30T04:27:18;100058.03;;;3.30;61.88
44839;BME280;30576;42.098;24.876;2023-01-30T04:29:43;100057.19;;;3.31;61.84
44839;BME280;30576;42.098;24.876;2023-01-30T04:32:08;100056.69;;;3.49;61.86
44839;BME280;30576;42.098;24.876;2023-01-30T04:34:34;100064.44;;;3.45;62.30
44839;BME280;30576;42.098;24.876;2023-01-30T04:36:59;100057.91;;;3.24;62.10
44839;BME280;30576;42.098;24.876;2023-01-30T04:39:24;100057.03;;;3.23;61.39
44839;BME280;30576;42.098;24.876;2023-01-30T04:41:50;100054.63;;;3.33;62.26
44839;BME280;30576;42.098;24.876;2023-01-30T04:44:16;100057.38;;;3.40;61.83
44839;BME280;30576;42.098;24.876;2023-01-30T04:46:41;100058.97;;;3.32;62.46
44839;BME280;30576;42.098;24.876;2023-01-30T04:49:08;100067.69;;;3.34;62.48
44839;BME280;30576;42.098;24.876;2023-01-30T04:51:33;100064.72;;;3.17;62.22
44839;BME280;30576;42.098;24.876;2023-01-30T04:53:59;100065.47;;;3.54;61.90
44839;BME280;30576;42.098;24.876;2023-01-30T04:56:24;100061.09;;;3.53;61.44
44839;BME280;30576;42.098;24.876;2023-01-30T04:58:49;100059.03;;;3.35;61.89
44839;BME280;30576;42.098;24.876;2023-01-30T05:01:21;100060.13;;;3.48;61.86
44839;BME280;30576;42.098;24.876;2023-01-30T05:03:51;100058.56;;;3.58;62.07
44839;BME280;30576;42.098;24.876;2023-01-30T05:06:16;100058.34;;;3.46;61.53
44839;BME280;30576;42.098;24.876;2023-01-30T05:08:41;100066.75;;;3.31;61.72
44839;BME280;30576;42.098;24.876;2023-01-30T05:11:07;100066.78;;;3.32;62.03
44839;BME280;30576;42.098;24.876;2023-01-30T05:13:32;100067.25;;;3.55;61.43
44839;BME280;30576;42.098;24.876;2023-01-30T05:15:57;100072.56;;;3.62;61.11
44839;BME280;30576;42.098;24.876;2023-01-30T05:18:23;100070.09;;;3.68;60.67
44839;BME280;30576;42.098;24.876;2023-01-30T05:20:51;100077.63;;;3.52;61.36
44839;BME280;30576;42.098;24.876;2023-01-30T05:23:16;100068.47;;;3.74;61.00
44839;BME280;30576;42.098;24.876;2023-01-30T05:25:41;100079.50;;;3.61;61.01
44839;BME280;30576;42.098;24.876;2023-01-30T05:28:07;100070.22;;;3.75;60.96
44839;BME280;30576;42.098;24.876;2023-01-30T05:30:32;100066.16;;;3.46;61.77
44839;BME280;30576;42.098;24.876;2023-01-30T05:32:57;100064.41;;;3.43;61.64
44839;BME280;30576;42.098;24.876;2023-01-30T05:35:23;100067.50;;;3.25;61.78
44839;BME280;30576;42.098;24.876;2023-01-30T05:37:49;100063.34;;;3.35;62.04
44839;BME280;30576;42.098;24.876;2023-01-30T05:40:14;100065.53;;;3.15;62.03
44839;BME280;30576;42.098;24.876;2023-01-30T05:42:39;100064.91;;;3.25;62.12
44839;BME280;30576;42.098;24.876;2023-01-30T05:45:05;100066.44;;;3.15;61.98
44839;BME280;30576;42.098;24.876;2023-01-30T05:47:30;100074.88;;;3.46;61.57
44839;BME280;30576;42.098;24.876;2023-01-30T05:49:55;100063.13;;;3.24;61.39
44839;BME280;30576;42.098;24.876;2023-01-30T05:52:21;100060.56;;;3.27;61.58
44839;BME280;30576;42.098;24.876;2023-01-30T05:54:46;100059.03;;;3.35;61.21
44839;BME280;30576;42.098;24.876;2023-01-30T05:57:11;100063.72;;;3.55;61.22
44839;BME280;30576;42.098;24.876;2023-01-30T05:59:37;100067.31;;;3.16;61.57
44839;BME280;30576;42.098;24.876;2023-01-30T06:02:02;100061.44;;;3.26;61.28
44839;BME280;30576;42.098;24.876;2023-01-30T06:04:27;100065.09;;;3.34;61.07
44839;BME280;30576;42.098;24.876;2023-01-30T06:06:52;100072.50;;;3.14;61.28
44839;BME280;30576;42.098;24.876;2023-01-30T06:09:18;100067.63;;;3.31;60.97
44839;BME280;30576;42.098;24.876;2023-01-30T06:11:43;100076.50;;;3.41;61.34
44839;BME280;30576;42.098;24.876;2023-01-30T06:14:08;100079.19;;;3.46;61.14
44839;BME280;30576;42.098;24.876;2023-01-30T06:16:34;100073.50;;;3.21;60.91
44839;BME280;30576;42.098;24.876;2023-01-30T06:18:59;100085.25;;;3.43;61.78
44839;BME280;30576;42.098;24.876;2023-01-30T06:21:24;100079.63;;;3.67;61.09
44839;BME280;30576;42.098;24.876;2023-01-30T06:23:50;100084.56;;;3.53;60.39
44839;BME280;30576;42.098;24.876;2023-01-30T06:26:15;100083.72;;;3.53;60.78
44839;BME280;30576;42.098;24.876;2023-01-30T06:28:40;100077.66;;;3.54;61.13
44839;BME280;30576;42.098;24.876;2023-01-30T06:31:06;100072.44;;;3.54;60.50
44839;BME280;30576;42.098;24.876;2023-01-30T06:33:32;100077.31;;;3.37;60.80
44839;BME280;30576;42.098;24.876;2023-01-30T06:35:57;100080.13;;;3.48;60.81
44839;BME280;30576;42.098;24.876;2023-01-30T06:38:22;100078.13;;;3.34;60.81
44839;BME280;30576;42.098;24.876;2023-01-30T06:40:48;100074.69;;;3.37;60.73
44839;BME280;30576;42.098;24.876;2023-01-30T06:43:14;100077.25;;;3.34;60.33
44839;BME280;30576;42.098;24.876;2023-01-30T06:45:39;100072.03;;;3.34;60.69
44839;BME280;30576;42.098;24.876;2023-01-30T06:48:05;100072.13;;;3.38;60.41
44839;BME280;30576;42.098;24.876;2023-01-30T06:50:30;100078.59;;;3.16;60.24
44839;BME280;30576;42.098;24.876;2023-01-30T06:52:56;100085.13;;;3.37;60.58
44839;BME280;30576;42.098;24.876;2023-01-30T06:55:23;100080.72;;;3.34;60.42
44839;BME280;30576;42.098;24.876;2023-01-30T06:57:49;100085.63;;;3.19;60.79
44839;BME280;30576;42.098;24.876;2023-01-30T07:00:15;100083.59;;;3.05;61.01
44839;BME280;30576;42.098;24.876;2023-01-30T07:02:41;100085.19;;;3.40;60.51
44839;BME280;30576;42.098;24.876;2023-01-30T07:05:07;100078.34;;;3.45;60.16
44839;BME280;30576;42.098;24.876;2023-01-30T07:07:33;100090.41;;;3.40;60.01
44839;BME280;30576;42.098;24.876;2023-01-30T07:09:58;100086.81;;;3.35;60.25
44839;BME280;30576;42.098;24.876;2023-01-30T07:12:24;100086.13;;;3.44;60.01
44839;BME280;30576;42.098;24.876;2023-01-30T07:14:50;100089.69;;;3.49;60.47
44839;BME280;30576;42.098;24.876;2023-01-30T07:17:16;100083.63;;;3.48;59.82
44839;BME280;30576;42.098;24.876;2023-01-30T07:19:42;100086.66;;;3.71;59.79
44839;BME280;30576;42.098;24.876;2023-01-30T07:22:07;100083.00;;;3.62;59.11
44839;BME280;30576;42.098;24.876;2023-01-30T07:24:32;100080.50;;;3.66;59.62
44839;BME280;30576;42.098;24.876;2023-01-30T07:26:58;100082.06;;;3.58;59.03
44839;BME280;30576;42.098;24.876;2023-01-30T07:29:23;100084.09;;;3.30;60.73
44839;BME280;30576;42.098;24.876;2023-01-30T07:31:48;100085.47;;;3.54;60.21
44839;BME280;30576;42.098;24.876;2023-01-30T07:34:13;100089.78;;;3.53;60.99
44839;BME280;30576;42.098;24.876;2023-01-30T07:36:39;100085.22;;;3.42;60.55
44839;BME280;30576;42.098;24.876;2023-01-30T07:39:04;100086.97;;;3.43;60.55
44839;BME280;30576;42.098;24.876;2023-01-30T07:41:30;100083.03;;;3.63;59.75
44839;BME280;30576;42.098;24.876;2023-01-30T07:43:55;100085.59;;;3.60;60.29
44839;BME280;30576;42.098;24.876;2023-01-30T07:46:20;100082.66;;;3.43;60.34
44839;BME280;30576;42.098;24.876;2023-01-30T07:48:46;100077.56;;;3.49;60.46
44839;BME280;30576;42.098;24.876;2023-01-30T07:51:11;100083.00;;;3.62;60.61
44839;BME280;30576;42.098;24.876;2023-01-30T07:53:37;100066.13;;;3.90;60.10
44839;BME280;30576;42.098;24.876;2023-01-30T07:56:08;100079.25;;;3.93;59.48
44839;BME280;30576;42.098;24.876;2023-01-30T07:58:34;100071.28;;;3.85;60.32
44839;BME280;30576;42.098;24.876;2023-01-30T08:00:59;100075.78;;;3.48;60.22
44839;BME280;30576;42.098;24.876;2023-01-30T08:03:25;100073.97;;;3.44;59.99
44839;BME280;30576;42.098;24.876;2023-01-30T08:05:50;100075.28;;;3.66;60.29
44839;BME280;30576;42.098;24.876;2023-01-30T08:08:16;100077.06;;;3.70;59.59
44839;BME280;30576;42.098;24.876;2023-01-30T08:10:42;100071.09;;;3.76;59.33
44839;BME280;30576;42.098;24.876;2023-01-30T08:13:07;100070.34;;;3.82;58.89
44839;BME280;30576;42.098;24.876;2023-01-30T08:15:32;100076.81;;;3.56;60.09
44839;BME280;30576;42.098;24.876;2023-01-30T08:17:58;100071.13;;;3.78;59.93
44839;BME280;30576;42.098;24.876;2023-01-30T08:20:23;100070.47;;;3.88;59.48
44839;BME280;30576;42.098;24.876;2023-01-30T08:22:49;100062.56;;;3.85;59.36
44839;BME280;30576;42.098;24.876;2023-01-30T08:25:14;100064.97;;;3.74;59.57
44839;BME280;30576;42.098;24.876;2023-01-30T08:27:40;100064.06;;;3.72;60.38
44839;BME280;30576;42.098;24.876;2023-01-30T08:30:05;100066.56;;;3.67;59.66
44839;BME280;30576;42.098;24.876;2023-01-30T08:32:31;100061.44;;;3.72;60.91
44839;BME280;30576;42.098;24.876;2023-01-30T08:34:56;100064.44;;;3.45;59.69
44839;BME280;30576;42.098;24.876;2023-01-30T08:37:22;100060.34;;;3.59;60.11
44839;BME280;30576;42.098;24.876;2023-01-30T08:39:47;100052.59;;;3.64;60.74
44839;BME280;30576;42.098;24.876;2023-01-30T08:42:12;100052.16;;;3.40;60.34
44839;BME280;30576;42.098;24.876;2023-01-30T08:44:37;100054.09;;;3.49;60.19
44839;BME280;30576;42.098;24.876;2023-01-30T08:47:03;100055.31;;;3.70;60.97
44839;BME280;30576;42.098;24.876;2023-01-30T08:49:28;100052.88;;;3.79;60.10
44839;BME280;30576;42.098;24.876;2023-01-30T08:51:53;100058.16;;;3.82;60.23
44839;BME280;30576;42.098;24.876;2023-01-30T08:54:19;100058.91;;;3.76;58.91
44839;BME280;30576;42.098;24.876;2023-01-30T08:56:44;100062.97;;;4.08;59.44
44839;BME280;30576;42.098;24.876;2023-01-30T08:59:09;100059.22;;;3.93;59.61
44839;BME280;30576;42.098;24.876;2023-01-30T09:01:34;100050.38;;;3.84;60.39
44839;BME280;30576;42.098;24.876;2023-01-30T09:04:02;100053.97;;;3.92;60.11
44839;BME280;30576;42.098;24.876;2023-01-30T09:06:27;100050.94;;;3.69;59.78
44839;BME280;30576;42.098;24.876;2023-01-30T09:08:52;100045.34;;;3.94;59.75
44839;BME280;30576;42.098;24.876;2023-01-30T09:11:18;100043.56;;;3.93;59.34
44839;BME280;30576;42.098;24.876;2023-01-30T09:13:43;100042.69;;;3.93;58.94
44839;BME280;30576;42.098;24.876;2023-01-30T09:16:09;100033.69;;;4.27;58.68
44839;BME280;30576;42.098;24.876;2023-01-30T09:18:41;100042.19;;;4.14;59.94
44839;BME280;30576;42.098;24.876;2023-01-30T09:21:07;100044.91;;;4.20;60.47
44839;BME280;30576;42.098;24.876;2023-01-30T09:23:33;100034.25;;;4.64;60.56
44839;BME280;30576;42.098;24.876;2023-01-30T09:25:58;100028.94;;;4.58;58.65
44839;BME280;30576;42.098;24.876;2023-01-30T09:28:24;100025.94;;;4.34;59.56
44839;BME280;30576;42.098;24.876;2023-01-30T09:30:50;100019.44;;;4.63;60.84
44839;BME280;30576;42.098;24.876;2023-01-30T09:33:15;100015.09;;;4.65;59.46
44839;BME280;30576;42.098;24.876;2023-01-30T09:35:45;100017.72;;;4.65;58.71
44839;BME280;30576;42.098;24.876;2023-01-30T09:38:11;100011.06;;;4.26;59.66
44839;BME280;30576;42.098;24.876;2023-01-30T09:40:37;100003.72;;;4.60;59.15
44839;BME280;30576;42.098;24.876;2023-01-30T09:43:17;99994.19;;;4.07;58.74
44839;BME280;30576;42.098;24.876;2023-01-30T09:46:10;99996.22;;;4.25;58.90
44839;BME280;30576;42.098;24.876;2023-01-30T09:48:43;99998.13;;;4.36;57.87
44839;BME280;30576;42.098;24.876;2023-01-30T09:56:22;99989.38;;;4.34;58.69
44839;BME280;30576;42.098;24.876;2023-01-30T09:58:51;99990.38;;;4.42;57.19
44839;BME280;30576;42.098;24.876;2023-01-30T10:19:54;99933.34;;;4.74;57.68
44839;BME280;30576;42.098;24.876;2023-01-30T10:25:04;99924.09;;;5.02;55.54
44839;BME280;30576;42.098;24.876;2023-01-30T10:27:35;99918.03;;;5.07;56.13
44839;BME280;30576;42.098;24.876;2023-01-30T10:30:04;99913.41;;;4.82;55.63
44839;BME280;30576;42.098;24.876;2023-01-30T10:32:34;99906.19;;;4.63;55.60
44839;BME280;30576;42.098;24.876;2023-01-30T10:35:05;99901.78;;;4.59;55.98
44839;BME280;30576;42.098;24.876;2023-01-30T10:37:34;99900.06;;;4.61;55.29
44839;BME280;30576;42.098;24.876;2023-01-30T10:40:11;99897.31;;;4.48;55.54
44839;BME280;30576;42.098;24.876;2023-01-30T10:45:11;99877.47;;;4.66;55.80
44839;BME280;30576;42.098;24.876;2023-01-30T10:50:38;99865.25;;;4.62;55.61
44839;BME280;30576;42.098;24.876;2023-01-30T10:53:19;99864.75;;;4.97;55.75
44839;BME280;30576;42.098;24.876;2023-01-30T10:55:47;99851.28;;;4.61;55.83
44839;BME280;30576;42.098;24.876;2023-01-30T11:05:46;99834.59;;;4.48;55.31
44839;BME280;30576;42.098;24.876;2023-01-30T11:08:17;99827.94;;;4.78;56.32
44839;BME280;30576;42.098;24.876;2023-01-30T11:10:43;99820.19;;;4.84;53.58
44839;BME280;30576;42.098;24.876;2023-01-30T11:13:11;99822.84;;;4.89;56.56
44839;BME280;30576;42.098;24.876;2023-01-30T11:15:38;99809.81;;;4.94;54.18
44839;BME280;30576;42.098;24.876;2023-01-30T11:18:04;99806.59;;;5.21;55.25
44839;BME280;30576;42.098;24.876;2023-01-30T11:20:30;99800.50;;;5.20;54.53
44839;BME280;30576;42.098;24.876;2023-01-30T11:23:05;99796.00;;;5.07;54.44
44839;BME280;30576;42.098;24.876;2023-01-30T11:25:31;99788.06;;;4.96;54.86
44839;BME280;30576;42.098;24.876;2023-01-30T11:28:11;99788.41;;;5.38;54.62
44839;BME280;30576;42.098;24.876;2023-01-30T11:30:38;99786.50;;;5.17;53.62
44839;BME280;30576;42.098;24.876;2023-01-30T11:35:30;99776.91;;;5.16;53.49
44839;BME280;30576;42.098;24.876;2023-01-30T11:43:28;99754.19;;;5.09;54.64
44839;BME280;30576;42.098;24.876;2023-01-30T11:45:53;99745.59;;;5.24;54.38
44839;BME280;30576;42.098;24.876;2023-01-30T11:48:20;99746.72;;;5.63;53.79
44839;BME280;30576;42.098;24.876;2023-01-30T11:50:47;99748.25;;;5.36;53.90
44839;BME280;30576;42.098;24.876;2023-01-30T11:53:19;99743.88;;;5.30;54.84
44839;BME280;30576;42.098;24.876;2023-01-30T11:55:44;99737.63;;;5.07;54.09
44839;BME280;30576;42.098;24.876;2023-01-30T11:58:11;99736.84;;;5.25;53.29
44839;BME280;30576;42.098;24.876;2023-01-30T12:00:38;99728.25;;;5.40;54.02
44839;BME280;30576;42.098;24.876;2023-01-30T12:03:05;99706.31;;;5.17;54.62
44839;BME280;30576;42.098;24.876;2023-01-30T12:05:36;99717.75;;;5.33;54.47
44839;BME280;30576;42.098;24.876;2023-01-30T12:10:45;99709.72;;;5.10;53.94
44839;BME280;30576;42.098;24.876;2023-01-30T12:16:02;99700.22;;;5.20;54.35
44839;BME280;30576;42.098;24.876;2023-01-30T12:18:33;99696.81;;;5.32;52.70
44839;BME280;30576;42.098;24.876;2023-01-30T12:23:42;99690.63;;;5.19;53.75
44839;BME280;30576;42.098;24.876;2023-01-30T12:26:19;99682.81;;;5.30;53.50
44839;BME280;30576;42.098;24.876;2023-01-30T12:33:57;99681.03;;;5.18;53.56
44839;BME280;30576;42.098;24.876;2023-01-30T12:36:30;99668.00;;;5.27;52.59
44839;BME280;30576;42.098;24.876;2023-01-30T12:44:30;99676.63;;;5.12;53.96
44839;BME280;30576;42.098;24.876;2023-01-30T12:49:47;99667.16;;;5.33;52.59
44839;BME280;30576;42.098;24.876;2023-01-30T13:04:48;99642.72;;;5.26;52.40
44839;BME280;30576;42.098;24.876;2023-01-30T13:07:25;99645.47;;;5.59;52.11
44839;BME280;30576;42.098;24.876;2023-01-30T13:15:19;99632.25;;;5.25;52.55
44839;BME280;30576;42.098;24.876;2023-01-30T13:23:00;99631.97;;;4.81;51.72
44839;BME280;30576;42.098;24.876;2023-01-30T13:25:31;99621.59;;;4.94;51.82
44839;BME280;30576;42.098;24.876;2023-01-30T13:28:05;99624.13;;;4.83;50.96
44839;BME280;30576;42.098;24.876;2023-01-30T13:30:33;99623.13;;;4.64;51.51
44839;BME280;30576;42.098;24.876;2023-01-30T13:33:00;99630.16;;;4.73;52.62
44839;BME280;30576;42.098;24.876;2023-01-30T13:35:30;99624.16;;;4.88;52.66
44839;BME280;30576;42.098;24.876;2023-01-30T13:37:56;99627.78;;;5.05;52.14
44839;BME280;30576;42.098;24.876;2023-01-30T13:40:22;99623.38;;;4.98;53.50
44839;BME280;30576;42.098;24.876;2023-01-30T13:45:25;99613.75;;;4.94;53.33
44839;BME280;30576;42.098;24.876;2023-01-30T13:52:55;99615.47;;;4.90;54.32
44839;BME280;30576;42.098;24.876;2023-01-30T13:57:57;99606.81;;;4.94;53.75
44839;BME280;30576;42.098;24.876;2023-01-30T14:00:32;99605.06;;;4.99;54.36
44839;BME280;30576;42.098;24.876;2023-01-30T14:08:17;99601.63;;;5.02;53.78
44839;BME280;30576;42.098;24.876;2023-01-30T14:10:44;99603.28;;;4.95;52.39
44839;BME280;30576;42.098;24.876;2023-01-30T14:13:11;99608.59;;;5.06;51.22
44839;BME280;30576;42.098;24.876;2023-01-30T14:15:37;99611.16;;;4.98;50.52
44839;BME280;30576;42.098;24.876;2023-01-30T14:18:05;99604.78;;;4.58;49.50
44839;BME280;30576;42.098;24.876;2023-01-30T14:23:00;99600.44;;;4.58;50.23
44839;BME280;30576;42.098;24.876;2023-01-30T14:32:56;99592.31;;;4.24;50.08
44839;BME280;30576;42.098;24.876;2023-01-30T14:35:23;99587.09;;;4.24;50.35
44839;BME280;30576;42.098;24.876;2023-01-30T14:37:50;99586.13;;;4.13;50.48
44839;BME280;30576;42.098;24.876;2023-01-30T14:48:29;99583.31;;;3.91;51.11
44839;BME280;30576;42.098;24.876;2023-01-30T14:53:49;99582.38;;;3.86;51.67
44839;BME280;30576;42.098;24.876;2023-01-30T14:56:16;99586.50;;;3.66;52.53
44839;BME280;30576;42.098;24.876;2023-01-30T14:58:49;99589.19;;;3.73;53.02
44839;BME280;30576;42.098;24.876;2023-01-30T15:01:15;99589.16;;;3.70;52.65
44839;BME280;30576;42.098;24.876;2023-01-30T15:03:40;99589.91;;;3.57;53.13
44839;BME280;30576;42.098;24.876;2023-01-30T15:06:11;99593.56;;;3.76;53.65
44839;BME280;30576;42.098;24.876;2023-01-30T15:08:38;99593.63;;;3.81;53.61
44839;BME280;30576;42.098;24.876;2023-01-30T15:11:20;99591.78;;;3.70;53.50
44839;BME280;30576;42.098;24.876;2023-01-30T15:31:51;99585.66;;;3.68;53.31
44839;BME280;30576;42.098;24.876;2023-01-30T15:34:20;99587.44;;;3.71;53.65
44839;BME280;30576;42.098;24.876;2023-01-30T15:36:45;99588.25;;;3.67;53.63
44839;BME280;30576;42.098;24.876;2023-01-30T15:39:21;99590.22;;;3.86;53.79
44839;BME280;30576;42.098;24.876;2023-01-30T15:41:47;99589.31;;;3.84;53.19
44839;BME280;30576;42.098;24.876;2023-01-30T15:52:27;99581.53;;;3.89;54.18
44839;BME280;30576;42.098;24.876;2023-01-30T15:54:57;99590.16;;;3.80;54.24